Disclaimer

Please do not use the information listed here in-flight or in-navigation, as they are not provided to us by the airports but are provided by volunteers, so they might be outdated.

Search


Regions


Airport information page

Radio informations:
CAYO LARGO TWR - 118.5 MHz
CAYO LARGO APP - 120.1 MHz

Airport informations:
Latitude: 21° 36' 59.23" N
Longitude: 081° 32' 45.56" W
Elevation: 10 feet - 3 meters
Operating hours: Remarks
Operating agency: Civil government, landing fees and diplomatic clearance may be required
Timezone: UTC-5(-4DT) - Last Sunday in March to last Sunday in October
Fuel: Jet A1, without icing nhibitor.

Runway information:
12/30 - 9869 x 148 feet< - >3008 x 45 meters

Recent METARs:
MUCL 162250Z 02010KT 340V060 9000 BKN020 26/21 Q1015
MUCL 162250Z 02010KT 340V060 9000 BKN020 26/21 Q1015
MUCL 162350Z 02011KT 330V050 9000 SCT020 26/20 Q1015

Airport on the map: